createdAt,value
2023-03-12T00:00:19.850Z,22.68
2023-03-12T00:02:49.388Z,22.69
2023-03-12T00:05:19.056Z,22.73
2023-03-12T00:07:48.657Z,22.75
2023-03-12T00:10:18.300Z,22.74
2023-03-12T00:12:47.969Z,22.74
2023-03-12T00:15:17.578Z,22.75
2023-03-12T00:17:47.160Z,22.72
2023-03-12T00:20:16.858Z,22.73
2023-03-12T00:22:46.372Z,22.74
2023-03-12T00:25:17.481Z,22.75
2023-03-12T00:27:47.072Z,22.75
2023-03-12T00:30:16.835Z,22.74
2023-03-12T00:32:46.670Z,22.74
2023-03-12T00:35:16.256Z,22.73
2023-03-12T00:37:45.884Z,22.76
2023-03-12T00:40:15.826Z,22.77
2023-03-12T00:42:45.489Z,22.75
2023-03-12T00:45:15.151Z,22.75
2023-03-12T00:47:44.728Z,22.74
2023-03-12T00:50:14.338Z,22.73
2023-03-12T00:52:43.983Z,22.75
2023-03-12T00:55:13.594Z,22.75
2023-03-12T00:57:43.123Z,22.74
2023-03-12T01:00:13.823Z,22.75
2023-03-12T01:02:43.522Z,22.73
2023-03-12T01:05:14.644Z,22.74
2023-03-12T01:07:44.433Z,22.72
2023-03-12T01:10:16.081Z,22.74
2023-03-12T01:12:45.681Z,22.73
2023-03-12T01:15:18.968Z,22.72
2023-03-12T01:17:48.582Z,22.71
2023-03-12T01:20:18.252Z,22.71
2023-03-12T01:22:47.858Z,22.71
2023-03-12T01:25:17.750Z,22.70
2023-03-12T01:27:47.425Z,22.67
2023-03-12T01:30:17.222Z,22.69
2023-03-12T01:32:46.979Z,22.68
2023-03-12T01:35:16.677Z,22.70
2023-03-12T01:37:46.350Z,22.68
2023-03-12T01:40:20.673Z,22.67
2023-03-12T01:42:57.413Z,22.68
2023-03-12T01:46:14.363Z,22.69
2023-03-12T01:48:52.003Z,22.66
2023-03-12T01:51:21.595Z,22.65
2023-03-12T01:53:52.986Z,22.67
2023-03-12T01:56:22.641Z,22.66
2023-03-12T01:58:54.796Z,22.66
2023-03-12T02:01:24.614Z,22.67
2023-03-12T02:03:54.838Z,22.69
2023-03-12T02:06:32.108Z,22.66
2023-03-12T02:09:01.704Z,22.66
2023-03-12T02:11:31.355Z,22.65
2023-03-12T02:14:00.971Z,22.66
2023-03-12T02:16:30.724Z,22.66
2023-03-12T02:19:00.375Z,22.63
2023-03-12T02:21:31.598Z,22.63
2023-03-12T02:24:12.133Z,22.64
2023-03-12T02:26:41.780Z,22.64
2023-03-12T02:29:11.761Z,22.64
2023-03-12T02:31:46.922Z,22.63
2023-03-12T02:34:16.516Z,22.63
2023-03-12T02:36:46.171Z,22.62
2023-03-12T02:39:15.797Z,22.60
2023-03-12T02:41:55.308Z,22.62
2023-03-12T02:44:35.022Z,22.62
2023-03-12T02:47:04.817Z,22.60
2023-03-12T02:49:35.474Z,22.62
2023-03-12T02:52:05.399Z,22.65
2023-03-12T02:54:35.082Z,22.64
2023-03-12T02:57:04.808Z,22.60
2023-03-12T02:59:34.600Z,22.62
2023-03-12T03:02:04.619Z,22.62
2023-03-12T03:04:36.391Z,22.61
2023-03-12T03:07:06.089Z,22.62
2023-03-12T03:09:35.945Z,22.62
2023-03-12T03:12:05.722Z,22.60
2023-03-12T03:14:35.362Z,22.59
2023-03-12T03:17:04.906Z,22.59
2023-03-12T03:19:34.507Z,22.57
2023-03-12T03:22:04.122Z,22.59
2023-03-12T03:24:33.817Z,22.58
2023-03-12T03:27:03.384Z,22.58
2023-03-12T03:29:33.013Z,22.59
2023-03-12T03:32:02.554Z,22.60
2023-03-12T03:34:32.125Z,22.58
2023-03-12T03:37:01.635Z,22.57
2023-03-12T03:39:31.871Z,22.56
2023-03-12T03:42:01.578Z,22.56
2023-03-12T03:44:31.986Z,22.56
2023-03-12T03:47:01.616Z,22.56
2023-03-12T03:49:31.174Z,22.56
2023-03-12T03:52:00.767Z,22.55
2023-03-12T03:54:32.622Z,22.55
2023-03-12T03:57:02.354Z,22.56
2023-03-12T03:59:31.916Z,22.57
2023-03-12T04:02:03.703Z,22.54
2023-03-12T04:04:33.267Z,22.55
2023-03-12T04:07:02.894Z,22.53
2023-03-12T04:09:32.474Z,22.53
2023-03-12T04:12:02.034Z,22.54
2023-03-12T04:14:32.278Z,22.54
2023-03-12T04:17:01.926Z,22.52
2023-03-12T04:19:31.599Z,22.53
2023-03-12T04:22:01.164Z,22.54
2023-03-12T04:24:31.062Z,22.53
2023-03-12T04:27:00.880Z,22.51
2023-03-12T04:29:30.617Z,22.50
2023-03-12T04:32:00.211Z,22.52
2023-03-12T04:34:29.776Z,22.52
2023-03-12T04:36:59.381Z,22.48
2023-03-12T04:39:28.990Z,22.49
2023-03-12T04:41:58.657Z,22.50
2023-03-12T04:44:28.263Z,22.51
2023-03-12T04:46:57.933Z,22.51
2023-03-12T04:49:27.540Z,22.50
2023-03-12T04:51:57.219Z,22.50
2023-03-12T04:54:26.877Z,22.49
2023-03-12T04:56:56.438Z,22.50
2023-03-12T04:59:26.118Z,22.50
2023-03-12T05:01:55.746Z,22.50
2023-03-12T05:04:25.297Z,22.51
2023-03-12T05:06:54.971Z,22.50
2023-03-12T05:09:24.555Z,22.51
2023-03-12T05:11:54.204Z,22.52
2023-03-12T05:14:23.795Z,22.53
2023-03-12T05:16:53.413Z,22.50
2023-03-12T05:19:23.028Z,22.49
2023-03-12T05:21:52.717Z,22.48
2023-03-12T05:24:23.615Z,22.49
2023-03-12T05:26:53.200Z,22.48
2023-03-12T05:29:22.793Z,22.48
2023-03-12T05:31:52.579Z,22.47
2023-03-12T05:34:22.216Z,22.48
2023-03-12T05:36:51.924Z,22.48
2023-03-12T05:39:21.814Z,22.48
2023-03-12T05:41:51.396Z,22.46
2023-03-12T05:44:21.061Z,22.47
2023-03-12T05:46:50.611Z,22.49
2023-03-12T05:49:20.580Z,22.47
2023-03-12T05:51:50.893Z,22.48
2023-03-12T05:54:20.502Z,22.46
2023-03-12T05:56:50.075Z,22.46
2023-03-12T05:59:19.662Z,22.46
2023-03-12T06:01:49.337Z,22.49
2023-03-12T06:04:18.995Z,22.47
2023-03-12T06:06:48.671Z,22.47
2023-03-12T06:09:18.335Z,22.47
2023-03-12T06:11:47.935Z,22.48
2023-03-12T06:14:17.575Z,22.45
2023-03-12T06:16:47.327Z,22.47
2023-03-12T06:19:16.967Z,22.44
2023-03-12T06:21:46.604Z,22.44
2023-03-12T06:24:16.184Z,22.46
2023-03-12T06:26:45.840Z,22.43
2023-03-12T06:29:15.499Z,22.42
2023-03-12T06:31:45.504Z,22.45
2023-03-12T06:34:15.292Z,22.44
2023-03-12T06:36:44.893Z,22.43
2023-03-12T06:39:14.749Z,22.45
2023-03-12T06:41:44.354Z,22.45
2023-03-12T06:44:13.936Z,22.44
2023-03-12T06:46:44.082Z,22.43
2023-03-12T06:49:13.878Z,22.44
2023-03-12T06:51:43.481Z,22.44
2023-03-12T06:54:13.079Z,22.44
2023-03-12T06:56:42.718Z,22.45
2023-03-12T06:59:12.377Z,22.45
2023-03-12T07:01:42.029Z,22.45
2023-03-12T07:04:11.593Z,22.44
2023-03-12T07:06:41.170Z,22.43
2023-03-12T07:09:10.971Z,22.40
2023-03-12T07:11:40.637Z,22.41
2023-03-12T07:14:10.288Z,22.41
2023-03-12T07:16:39.867Z,22.41
2023-03-12T07:19:09.489Z,22.41
2023-03-12T07:21:39.093Z,22.42
2023-03-12T07:24:09.949Z,22.41
2023-03-12T07:26:39.540Z,22.42
2023-03-12T07:29:09.146Z,22.39
2023-03-12T07:31:38.745Z,22.41
2023-03-12T07:34:08.453Z,22.41
2023-03-12T07:36:38.200Z,22.40
2023-03-12T07:39:07.871Z,22.39
2023-03-12T07:41:39.053Z,22.38
2023-03-12T07:44:08.868Z,22.39
2023-03-12T07:46:38.553Z,22.37
2023-03-12T07:49:08.216Z,22.35
2023-03-12T07:51:37.835Z,22.38
2023-03-12T07:54:07.560Z,22.38
2023-03-12T07:56:37.268Z,22.38
2023-03-12T07:59:07.128Z,22.36
2023-03-12T08:01:36.983Z,22.38
2023-03-12T08:04:06.824Z,22.35
2023-03-12T08:06:36.532Z,22.36
2023-03-12T08:09:06.121Z,22.37
2023-03-12T08:11:35.946Z,22.37
2023-03-12T08:14:06.786Z,22.35
2023-03-12T08:16:36.575Z,22.37
2023-03-12T08:19:06.210Z,22.38
2023-03-12T08:21:35.855Z,22.38
2023-03-12T08:24:05.525Z,22.37
2023-03-12T08:26:35.106Z,22.37
2023-03-12T08:29:05.486Z,22.38
2023-03-12T08:31:35.264Z,22.36
2023-03-12T08:34:04.930Z,22.35
2023-03-12T08:36:34.533Z,22.38
2023-03-12T08:39:04.210Z,22.38
2023-03-12T08:41:33.870Z,22.37
2023-03-12T08:44:03.420Z,22.37
2023-03-12T08:46:33.055Z,22.37
2023-03-12T08:49:02.786Z,22.37
2023-03-12T08:51:32.364Z,22.36
2023-03-12T08:54:01.976Z,22.34
2023-03-12T08:56:31.528Z,22.37
2023-03-12T08:59:01.476Z,22.36
2023-03-12T09:01:31.036Z,22.34
2023-03-12T09:04:00.650Z,22.33
2023-03-12T09:06:30.314Z,22.36
2023-03-12T09:09:00.971Z,22.34
2023-03-12T09:11:30.499Z,22.33
2023-03-12T09:14:33.422Z,22.34
2023-03-12T09:16:49.987Z,22.34
2023-03-12T09:19:19.675Z,22.36
2023-03-12T09:21:49.382Z,22.36
2023-03-12T09:24:19.011Z,22.36
2023-03-12T09:26:48.814Z,22.34
2023-03-12T09:29:18.343Z,22.32
2023-03-12T09:31:47.894Z,22.32
2023-03-12T09:34:17.497Z,22.33
2023-03-12T09:36:47.104Z,22.35
2023-03-12T09:39:16.805Z,22.36
2023-03-12T09:41:49.208Z,22.34
2023-03-12T09:44:39.164Z,22.32
2023-03-12T09:47:14.020Z,22.31
2023-03-12T09:49:55.927Z,22.31
2023-03-12T09:52:45.587Z,22.31
2023-03-12T09:55:18.946Z,22.29
2023-03-12T09:57:49.537Z,22.30
2023-03-12T10:00:24.146Z,22.28
2023-03-12T10:03:45.369Z,22.29
2023-03-12T10:06:23.975Z,22.27
2023-03-12T10:09:29.364Z,22.29
2023-03-12T10:12:12.018Z,22.26
2023-03-12T10:14:56.716Z,22.24
2023-03-12T10:17:37.220Z,22.25
2023-03-12T10:20:20.779Z,22.24
2023-03-12T10:23:11.441Z,22.27
2023-03-12T10:25:45.379Z,22.22
2023-03-12T10:28:22.996Z,22.23
2023-03-12T10:30:58.074Z,22.22
2023-03-12T10:33:32.581Z,22.22
2023-03-12T10:36:02.155Z,22.24
2023-03-12T10:38:32.276Z,22.21
2023-03-12T10:41:01.905Z,22.20
2023-03-12T10:43:31.579Z,22.21
2023-03-12T10:46:12.858Z,22.21
2023-03-12T10:48:42.600Z,22.19
2023-03-12T10:51:15.646Z,22.21
2023-03-12T10:53:49.353Z,22.18
2023-03-12T10:56:22.536Z,22.18
2023-03-12T10:58:55.737Z,22.17
2023-03-12T11:01:30.700Z,22.19
2023-03-12T11:04:22.812Z,22.18
2023-03-12T11:07:16.644Z,22.16
2023-03-12T11:09:46.444Z,22.15
2023-03-12T11:12:26.559Z,22.14
2023-03-12T11:14:56.159Z,22.15
2023-03-12T11:17:30.183Z,22.14
2023-03-12T11:19:59.730Z,22.11
2023-03-12T11:22:36.771Z,22.09
2023-03-12T11:25:09.951Z,22.10
2023-03-12T11:27:51.456Z,22.09
2023-03-12T11:30:27.024Z,22.07
2023-03-12T11:32:59.457Z,22.06
2023-03-12T11:35:41.643Z,22.05
2023-03-12T11:38:12.134Z,22.06
2023-03-12T11:40:57.921Z,22.05
2023-03-12T11:43:45.850Z,22.04
2023-03-12T11:47:02.293Z,22.03
2023-03-12T11:49:41.064Z,22.02
2023-03-12T11:52:16.621Z,22.03
2023-03-12T11:55:18.782Z,22.04
2023-03-12T11:57:58.576Z,22.01
2023-03-12T12:01:03.998Z,21.99
2023-03-12T12:03:51.958Z,21.98
2023-03-12T12:06:24.559Z,21.97
2023-03-12T12:09:00.114Z,21.98
2023-03-12T12:11:35.739Z,21.97
2023-03-12T12:14:15.060Z,21.96
2023-03-12T12:17:03.853Z,21.94
2023-03-12T12:20:05.873Z,21.96
2023-03-12T12:22:56.665Z,21.97
2023-03-12T12:25:56.095Z,21.95
2023-03-12T12:29:02.892Z,21.96
2023-03-12T12:31:33.627Z,21.93
2023-03-12T12:34:37.026Z,21.93
2023-03-12T12:37:47.575Z,21.93
2023-03-12T12:40:20.166Z,21.91
2023-03-12T12:42:55.213Z,21.90
2023-03-12T12:45:24.811Z,21.91
2023-03-12T12:48:04.230Z,21.90
2023-03-12T12:50:36.639Z,21.91
2023-03-12T12:53:19.493Z,21.91
2023-03-12T12:56:02.411Z,21.92
2023-03-12T12:58:53.225Z,21.90
2023-03-12T13:01:22.908Z,21.88
2023-03-12T13:03:52.601Z,21.86
2023-03-12T13:06:22.219Z,21.88
2023-03-12T13:08:51.951Z,21.88
2023-03-12T13:11:52.006Z,21.87
2023-03-12T13:14:23.652Z,21.86
2023-03-12T13:16:53.483Z,21.86
2023-03-12T13:19:29.249Z,21.86
2023-03-12T13:22:02.600Z,21.83
2023-03-12T13:24:37.913Z,21.85
2023-03-12T13:27:26.619Z,21.85
2023-03-12T13:29:59.523Z,21.84
2023-03-12T13:32:39.557Z,21.84
2023-03-12T13:35:18.277Z,21.81
2023-03-12T13:37:53.878Z,21.82
2023-03-12T13:40:32.317Z,21.79
2023-03-12T13:43:10.792Z,21.81
2023-03-12T13:45:50.304Z,21.81
2023-03-12T13:48:24.211Z,21.80
2023-03-12T13:50:57.983Z,21.78
2023-03-12T13:53:40.066Z,21.77
2023-03-12T13:56:12.976Z,21.76
2023-03-12T13:59:04.841Z,21.75
2023-03-12T14:01:45.331Z,21.77
2023-03-12T14:04:24.641Z,21.77
2023-03-12T14:06:57.082Z,21.76
2023-03-12T14:09:29.880Z,21.77
2023-03-12T14:12:05.122Z,21.75
2023-03-12T14:14:59.737Z,21.74
2023-03-12T14:17:30.402Z,21.74
2023-03-12T14:20:21.749Z,21.75
2023-03-12T14:22:56.884Z,21.74
2023-03-12T14:25:39.950Z,21.73
2023-03-12T14:28:39.896Z,21.74
2023-03-12T14:31:16.305Z,21.74
2023-03-12T14:34:00.317Z,21.74
2023-03-12T14:36:51.403Z,21.73
2023-03-12T14:39:26.608Z,21.73
2023-03-12T14:42:09.471Z,21.74
2023-03-12T14:44:40.969Z,21.70
2023-03-12T14:47:14.411Z,21.70
2023-03-12T14:49:45.779Z,21.71
2023-03-12T14:52:25.326Z,21.71
2023-03-12T14:55:03.270Z,21.69
2023-03-12T14:57:32.844Z,21.69
2023-03-12T15:00:03.030Z,21.69
2023-03-12T15:02:33.212Z,21.70
2023-03-12T15:05:03.527Z,21.67
2023-03-12T15:07:36.010Z,21.67
2023-03-12T15:10:07.324Z,21.70
2023-03-12T15:12:38.778Z,21.69
2023-03-12T15:15:13.248Z,21.68
2023-03-12T15:17:42.855Z,21.68
2023-03-12T15:20:16.505Z,21.66
2023-03-12T15:22:46.104Z,21.65
2023-03-12T15:25:35.208Z,21.64
2023-03-12T15:28:10.788Z,21.61
2023-03-12T15:30:41.260Z,21.59
2023-03-12T15:33:26.144Z,21.60
2023-03-12T15:36:07.896Z,21.55
2023-03-12T15:38:39.918Z,21.56
2023-03-12T15:41:11.427Z,21.56
2023-03-12T15:43:41.101Z,21.57
2023-03-12T15:46:14.208Z,21.59
2023-03-12T15:48:43.898Z,21.60
2023-03-12T15:51:42.555Z,21.61
2023-03-12T15:54:21.402Z,21.58
2023-03-12T15:56:51.017Z,21.56
2023-03-12T15:59:27.861Z,21.56
2023-03-12T16:01:58.275Z,21.55
2023-03-12T16:04:27.878Z,21.55
2023-03-12T16:06:57.476Z,21.56
2023-03-12T16:09:28.477Z,21.56
2023-03-12T16:11:58.621Z,21.55
2023-03-12T16:14:36.236Z,21.56
2023-03-12T16:17:05.983Z,21.55
2023-03-12T16:19:35.832Z,21.53
2023-03-12T16:22:05.688Z,21.52
2023-03-12T16:24:35.317Z,21.54
2023-03-12T16:27:08.680Z,21.52
2023-03-12T16:29:40.478Z,21.51
2023-03-12T16:32:17.687Z,21.50
2023-03-12T16:34:47.659Z,21.49
2023-03-12T16:37:17.324Z,21.49
2023-03-12T16:39:47.959Z,21.47
2023-03-12T16:42:21.013Z,21.49
2023-03-12T16:44:50.621Z,21.48
2023-03-12T16:47:20.378Z,21.44
2023-03-12T16:49:49.963Z,21.44
2023-03-12T16:52:20.169Z,21.44
2023-03-12T16:54:52.664Z,21.47
2023-03-12T16:57:42.638Z,21.42
2023-03-12T17:00:15.628Z,21.40
2023-03-12T17:02:45.305Z,21.41
2023-03-12T17:05:15.074Z,21.41
2023-03-12T17:07:44.663Z,21.42
2023-03-12T17:10:14.898Z,21.40
2023-03-12T17:12:45.538Z,21.42
2023-03-12T17:15:34.891Z,21.42
2023-03-12T17:18:04.839Z,21.39
2023-03-12T17:20:37.581Z,21.41
2023-03-12T17:23:07.588Z,21.38
2023-03-12T17:25:38.741Z,21.40
2023-03-12T17:28:08.676Z,21.39
2023-03-12T17:30:38.456Z,21.38
2023-03-12T17:33:12.478Z,21.35
2023-03-12T17:35:42.247Z,21.31
2023-03-12T17:38:11.954Z,21.31
2023-03-12T17:40:45.481Z,21.34
2023-03-12T17:43:15.234Z,21.33
2023-03-12T17:45:44.878Z,21.31
2023-03-12T17:48:14.481Z,21.30
2023-03-12T17:50:44.124Z,21.29
2023-03-12T17:53:15.014Z,21.31
2023-03-12T17:55:44.723Z,21.34
2023-03-12T17:58:14.308Z,21.33
2023-03-12T18:00:43.860Z,21.31
2023-03-12T18:03:13.563Z,21.30
2023-03-12T18:05:45.857Z,21.31
2023-03-12T18:08:15.544Z,21.33
2023-03-12T18:10:45.135Z,21.34
2023-03-12T18:13:14.760Z,21.33
2023-03-12T18:15:44.558Z,21.34
2023-03-12T18:18:14.189Z,21.36
2023-03-12T18:20:44.208Z,21.35
2023-03-12T18:23:17.804Z,21.35
2023-03-12T18:25:47.704Z,21.36
2023-03-12T18:28:18.153Z,21.35
2023-03-12T18:30:48.783Z,21.35
2023-03-12T18:33:18.654Z,21.33
2023-03-12T18:35:48.255Z,21.34
2023-03-12T18:38:17.885Z,21.36
2023-03-12T18:40:47.605Z,21.32
2023-03-12T18:43:17.220Z,21.35
2023-03-12T18:45:47.345Z,21.33
2023-03-12T18:48:16.863Z,21.34
2023-03-12T18:50:46.487Z,21.31
2023-03-12T18:53:16.106Z,21.33
2023-03-12T18:55:55.445Z,21.31
2023-03-12T18:58:26.001Z,21.33
2023-03-12T19:00:59.276Z,21.31
2023-03-12T19:03:28.979Z,21.33
2023-03-12T19:06:09.555Z,21.31
2023-03-12T19:08:39.683Z,21.30
2023-03-12T19:11:14.163Z,21.31
2023-03-12T19:13:44.026Z,21.31
2023-03-12T19:16:14.277Z,21.29
2023-03-12T19:18:43.817Z,21.30
2023-03-12T19:21:13.400Z,21.25
2023-03-12T19:23:42.997Z,21.26
2023-03-12T19:26:12.680Z,21.25
2023-03-12T19:28:42.401Z,21.24
2023-03-12T19:31:13.504Z,21.26
2023-03-12T19:33:43.468Z,21.25
2023-03-12T19:36:13.052Z,21.24
2023-03-12T19:38:42.977Z,21.24
2023-03-12T19:41:12.600Z,21.24
2023-03-12T19:43:42.843Z,21.25
2023-03-12T19:46:12.476Z,21.22
2023-03-12T19:48:42.150Z,21.22
2023-03-12T19:51:12.858Z,21.23
2023-03-12T19:53:42.512Z,21.21
2023-03-12T19:56:12.064Z,21.21
2023-03-12T19:58:41.665Z,21.21
2023-03-12T20:01:11.245Z,21.21
2023-03-12T20:03:44.099Z,21.21
2023-03-12T20:06:14.075Z,21.16
2023-03-12T20:08:43.809Z,21.17
2023-03-12T20:11:13.464Z,21.18
2023-03-12T20:13:43.058Z,21.15
2023-03-12T20:16:14.725Z,21.15
2023-03-12T20:18:44.596Z,21.13
2023-03-12T20:21:14.193Z,21.12
2023-03-12T20:23:43.778Z,21.13
2023-03-12T20:26:13.475Z,21.14
2023-03-12T20:28:43.681Z,21.10
2023-03-12T20:31:17.116Z,21.09
2023-03-12T20:33:46.698Z,21.11
2023-03-12T20:36:16.624Z,21.09
2023-03-12T20:38:46.613Z,21.09
2023-03-12T20:41:16.351Z,21.06
2023-03-12T20:43:46.683Z,21.06
2023-03-12T20:46:16.375Z,21.09
2023-03-12T20:48:45.983Z,21.07
2023-03-12T20:51:15.588Z,21.07
2023-03-12T20:53:45.190Z,21.04
2023-03-12T20:56:14.988Z,21.02
2023-03-12T20:58:44.570Z,21.03
2023-03-12T21:01:14.196Z,21.01
2023-03-12T21:03:43.867Z,20.95
2023-03-12T21:06:13.484Z,20.99
2023-03-12T21:08:43.031Z,21.02
2023-03-12T21:11:12.660Z,21.39
2023-03-12T21:13:42.249Z,21.71
2023-03-12T21:16:13.379Z,22.23
2023-03-12T21:18:43.019Z,22.59
2023-03-12T21:21:13.027Z,23.04
2023-03-12T21:23:42.751Z,23.60
2023-03-12T21:26:13.519Z,24.14
2023-03-12T21:28:43.078Z,24.69
2023-03-12T21:31:17.399Z,25.09
2023-03-12T21:33:47.161Z,25.36
2023-03-12T21:36:16.882Z,25.59
2023-03-12T21:38:46.534Z,25.75
2023-03-12T21:41:17.717Z,25.90
2023-03-12T21:43:47.697Z,26.02
2023-03-12T21:46:26.202Z,26.11
2023-03-12T21:48:56.121Z,26.23
2023-03-12T21:51:27.689Z,26.23
2023-03-12T21:54:00.577Z,26.33
2023-03-12T21:56:31.843Z,26.32
2023-03-12T21:59:01.590Z,26.33
2023-03-12T22:01:31.288Z,26.33
2023-03-12T22:04:02.647Z,26.39
2023-03-12T22:06:32.284Z,26.40
2023-03-12T22:09:01.955Z,26.46
2023-03-12T22:11:31.674Z,26.45
2023-03-12T22:14:01.346Z,26.42
2023-03-12T22:16:31.153Z,26.45
2023-03-12T22:19:00.935Z,26.48
2023-03-12T22:21:30.526Z,26.54
2023-03-12T22:24:00.167Z,26.56
2023-03-12T22:26:29.969Z,26.69
2023-03-12T22:29:00.054Z,26.73
2023-03-12T22:31:30.814Z,26.83
2023-03-12T22:34:00.504Z,26.96
2023-03-12T22:36:30.250Z,27.06
2023-03-12T22:39:00.056Z,27.18
2023-03-12T22:41:30.698Z,27.25
2023-03-12T22:44:04.788Z,27.37
2023-03-12T22:46:33.954Z,27.46
2023-03-12T22:49:04.574Z,27.45
2023-03-12T22:51:35.030Z,27.55
2023-03-12T22:54:04.689Z,27.62
2023-03-12T22:56:34.382Z,27.66
2023-03-12T22:59:04.038Z,27.78
2023-03-12T23:01:33.854Z,27.87
2023-03-12T23:04:05.564Z,27.90
2023-03-12T23:06:35.318Z,27.98
2023-03-12T23:09:05.159Z,28.08
2023-03-12T23:11:34.732Z,28.11
2023-03-12T23:14:04.379Z,28.14
2023-03-12T23:16:34.000Z,28.16
2023-03-12T23:19:03.655Z,28.11
2023-03-12T23:21:33.308Z,28.11
2023-03-12T23:24:02.982Z,28.15
2023-03-12T23:26:32.577Z,28.18
2023-03-12T23:29:02.298Z,28.22
2023-03-12T23:31:32.089Z,28.27
2023-03-12T23:34:01.655Z,28.28
2023-03-12T23:36:31.284Z,28.31
2023-03-12T23:39:00.981Z,28.30
2023-03-12T23:41:31.075Z,28.31
2023-03-12T23:44:00.888Z,28.29
2023-03-12T23:46:30.589Z,28.40
2023-03-12T23:49:00.316Z,28.41
2023-03-12T23:51:34.428Z,28.42
2023-03-12T23:54:03.980Z,28.42
2023-03-12T23:56:35.489Z,28.41
2023-03-12T23:59:05.476Z,28.42
